Air Navigation Services of Czech Republic  
Last data update:  22.05.2019 02:31:26 UTC Česká verze
   METEO Page displayed:  22.05.2019 02:32:38 UTC  
help
METAR EDDB 220220Z 29011KT 9999 BKN007 14/13 Q1009 NOSIG=
METAR EDDC 220220Z 30011KT 260V340 9000 BKN005 13/12 Q1009=
METAR EDDE 220220Z 29011KT 9999 BKN026 12/10 Q1013=
METAR EDDF 220220Z 29010KT 9999 FEW012 BKN016 13/10 Q1016 TEMPO BKN012=
METAR EDDM 220220Z 26011KT 9999 -RA FEW006 BKN009 11/10 Q1014 TEMPO RA=
METAR EDDN 220220Z 29010KT 8000 -RA BKN007 12/11 Q1014=
METAR EDDP 220220Z 30012KT 7000 OVC007 13/11 Q1011 NOSIG=
METAR EDDT 220220Z 30005KT 250V350 9999 BKN006 14/13 Q1009=
METAR EDQM NIL
METAR EPBY 220200Z VRB02KT CAVOK 15/14 Q1004=
METAR EPGD 220200Z 29003KT 5000 BR FEW040 13/12 Q1005=
METAR EPKK 220200Z 25010KT 9999 FEW009CB BKN010 14/13 Q1001=
METAR EPKT 220200Z 32005KT 9999 FEW005 BKN008 13/12 Q1002=
METAR EPLL 220200Z 01006KT 9999 BKN008 BKN020 12/11 Q1002=
METAR EPPO 220200Z 33006KT 6000 BKN002 OVC011 16/15 Q1004 R10/290095 =
METAR EPRZ 220200Z 18013KT 9999 -SHRA SCT004 SCT020CB BKN036 13/12 Q1001=
METAR EPWA 220200Z 05010KT CAVOK 12/10 Q1002 NOSIG=
METAR EPWR 220200Z 30012KT 9999 BKN005 15/14 Q1004=
METAR LHBP 220200Z 24008KT 190V280 8000 -RA FEW009 SCT025 OVC040 14/14 Q1008 NOSIG=
METAR LHSM 220145Z AUTO 00000KT CAVOK 13/11 Q1009=
METAR LKBC 220230Z AUTO 27008KT 9999 OVC009 13/12 Q1008=
METAR COR LKCV 220200Z 29013KT 7000 RA BKN007 OVC015 14/14 Q1007 NOSIG RMK GRN GRN=
METAR LKKB 220200Z 29012KT 9999 -RA OVC025 14/12 Q1008 NOSIG RMK BLU=
METAR LKKU NIL
METAR LKKV 220200Z 26009KT 9999 SCT008 OVC014 11/10 Q1011 RMK REG QNH 1002=
METAR LKLN 220230Z AUTO 27004KT 230V320 9999 13/12 Q1011=
METAR LKMT 220230Z 23011KT 9999 OVC029 14/13 Q1004 NOSIG RMK REG QNH 1002=
METAR LKNA 220200Z 29013KT 9999 -RA FEW023 OVC050 12/11 Q1007 RMK BLU=
METAR COR LKPD 220200Z 28010KT 9999 -RA OVC040 14/12 Q1006 RMK BLU=
METAR LKPJ 220200Z AUTO 25007KT 9999 -RA FEW051/// SCT060/// OVC073/// 14/13 Q1005=
METAR LKPR 220230Z 28009KT 9999 FEW013 13/11 Q1009 NOSIG RMK REG QNH 1002=
METAR LKTB 220230Z 22006KT 9999 RA SCT039 13/12 Q1006 NOSIG RMK REG QNH 1002=
METAR LKVO NIL
METAR LOWI 220220Z AUTO VRB02KT 9999 FEW007 BKN070 10/09 Q1016=
METAR LOWL 220220Z AUTO 26012KT 9999 -SHRA FEW010 SCT014 BKN016 12/11 Q1012=
METAR LOWS 220220Z AUTO 14004KT 110V180 5000 +RA FEW013 SCT024 BKN034 10/09 Q1014=
METAR LOWW 220220Z 28016KT CAVOK 14/10 Q1008 NOSIG=
METAR LZIB 220230Z 26007KT 210V310 9999 FEW022 BKN091 14/10 Q1007=
METAR LZKZ 220230Z 20009KT 9999 -RA FEW008 OVC016 13/11 Q1006=
METAR LZMC NIL
METAR LZPP 220200Z AUTO VRB03KT 9999 -RA OVC072/// 13/11 Q1007=
METAR LZSL 220200Z 19004KT 9999 -RA OVC016 12/11 Q1006=
METAR LZTT 220230Z 24010KT 9999 BKN036 BKN075 11/09 Q1004=
METAR LZZI 220200Z 24007KT 210V270 9999 SCT016 OVC030 13/11 Q1005=